sensor_id;sensor_type;location;lat;lon;timestamp;temperature;humidity
30628;DHT22;17394;50.890;4.724;2024-01-06T00:02:01;6.80;99.90
30628;DHT22;17394;50.890;4.724;2024-01-06T00:04:27;6.80;99.90
30628;DHT22;17394;50.890;4.724;2024-01-06T00:06:54;6.80;99.90
30628;DHT22;17394;50.890;4.724;2024-01-06T00:09:20;6.80;99.90
30628;DHT22;17394;50.890;4.724;2024-01-06T00:11:45;6.80;99.90
30628;DHT22;17394;50.890;4.724;2024-01-06T00:14:11;6.80;99.90
30628;DHT22;17394;50.890;4.724;2024-01-06T00:16:37;6.80;99.90
30628;DHT22;17394;50.890;4.724;2024-01-06T00:19:03;6.80;99.90
30628;DHT22;17394;50.890;4.724;2024-01-06T00:21:28;6.80;99.90
30628;DHT22;17394;50.890;4.724;2024-01-06T00:23:54;6.70;99.90
30628;DHT22;17394;50.890;4.724;2024-01-06T00:26:21;6.70;99.90
30628;DHT22;17394;50.890;4.724;2024-01-06T00:28:47;6.70;99.90
30628;DHT22;17394;50.890;4.724;2024-01-06T00:31:15;6.70;99.90
30628;DHT22;17394;50.890;4.724;2024-01-06T00:33:44;6.80;99.90
30628;DHT22;17394;50.890;4.724;2024-01-06T00:36:09;6.70;99.90
30628;DHT22;17394;50.890;4.724;2024-01-06T00:38:35;6.70;99.90
30628;DHT22;17394;50.890;4.724;2024-01-06T00:41:02;6.70;99.90
30628;DHT22;17394;50.890;4.724;2024-01-06T00:43:27;6.70;99.90
30628;DHT22;17394;50.890;4.724;2024-01-06T00:45:53;6.70;99.90
30628;DHT22;17394;50.890;4.724;2024-01-06T00:48:19;6.70;99.90
30628;DHT22;17394;50.890;4.724;2024-01-06T00:50:45;6.70;99.90
30628;DHT22;17394;50.890;4.724;2024-01-06T00:53:12;6.70;99.90
30628;DHT22;17394;50.890;4.724;2024-01-06T00:55:38;6.70;99.90
30628;DHT22;17394;50.890;4.724;2024-01-06T00:58:04;6.70;99.90
30628;DHT22;17394;50.890;4.724;2024-01-06T01:00:29;6.70;99.90
30628;DHT22;17394;50.890;4.724;2024-01-06T01:02:55;6.70;99.90
30628;DHT22;17394;50.890;4.724;2024-01-06T01:05:21;6.70;99.90
30628;DHT22;17394;50.890;4.724;2024-01-06T01:07:47;6.60;99.90
30628;DHT22;17394;50.890;4.724;2024-01-06T01:10:13;6.70;99.90
30628;DHT22;17394;50.890;4.724;2024-01-06T01:12:39;6.60;99.90
30628;DHT22;17394;50.890;4.724;2024-01-06T01:15:05;6.60;99.90
30628;DHT22;17394;50.890;4.724;2024-01-06T01:17:31;6.70;99.90
30628;DHT22;17394;50.890;4.724;2024-01-06T01:19:57;6.60;99.90
30628;DHT22;17394;50.890;4.724;2024-01-06T01:22:22;6.60;99.90
30628;DHT22;17394;50.890;4.724;2024-01-06T01:24:48;6.60;99.90
30628;DHT22;17394;50.890;4.724;2024-01-06T01:27:14;6.60;99.90
30628;DHT22;17394;50.890;4.724;2024-01-06T01:29:40;6.60;99.90
30628;DHT22;17394;50.890;4.724;2024-01-06T01:32:06;6.60;99.90
30628;DHT22;17394;50.890;4.724;2024-01-06T01:34:32;6.60;99.90
30628;DHT22;17394;50.890;4.724;2024-01-06T01:36:57;6.60;99.90
30628;DHT22;17394;50.890;4.724;2024-01-06T01:39:23;6.60;99.90
30628;DHT22;17394;50.890;4.724;2024-01-06T01:41:49;6.60;99.90
30628;DHT22;17394;50.890;4.724;2024-01-06T01:44:16;6.60;99.90
30628;DHT22;17394;50.890;4.724;2024-01-06T01:46:42;6.60;99.90
30628;DHT22;17394;50.890;4.724;2024-01-06T01:49:08;6.60;99.90
30628;DHT22;17394;50.890;4.724;2024-01-06T01:51:34;6.60;99.90
30628;DHT22;17394;50.890;4.724;2024-01-06T01:54:01;6.60;99.90
30628;DHT22;17394;50.890;4.724;2024-01-06T01:56:30;6.60;99.90
30628;DHT22;17394;50.890;4.724;2024-01-06T01:59:05;6.60;99.90
30628;DHT22;17394;50.890;4.724;2024-01-06T02:01:32;6.60;99.90
30628;DHT22;17394;50.890;4.724;2024-01-06T02:03:59;6.60;99.90
30628;DHT22;17394;50.890;4.724;2024-01-06T02:06:25;6.60;99.90
30628;DHT22;17394;50.890;4.724;2024-01-06T02:08:50;6.60;99.90
30628;DHT22;17394;50.890;4.724;2024-01-06T02:11:16;6.60;99.90
30628;DHT22;17394;50.890;4.724;2024-01-06T02:13:42;6.60;99.90
30628;DHT22;17394;50.890;4.724;2024-01-06T02:16:08;6.60;99.90
30628;DHT22;17394;50.890;4.724;2024-01-06T02:18:34;6.60;99.90
30628;DHT22;17394;50.890;4.724;2024-01-06T02:21:01;6.60;99.90
30628;DHT22;17394;50.890;4.724;2024-01-06T02:23:30;6.60;99.90
30628;DHT22;17394;50.890;4.724;2024-01-06T02:25:56;6.60;99.90
30628;DHT22;17394;50.890;4.724;2024-01-06T02:28:22;6.60;99.90
30628;DHT22;17394;50.890;4.724;2024-01-06T02:30:49;6.60;99.90
30628;DHT22;17394;50.890;4.724;2024-01-06T02:33:15;6.60;99.90
30628;DHT22;17394;50.890;4.724;2024-01-06T02:35:41;6.60;99.90
30628;DHT22;17394;50.890;4.724;2024-01-06T02:38:07;6.60;99.90
30628;DHT22;17394;50.890;4.724;2024-01-06T02:40:35;6.60;99.90
30628;DHT22;17394;50.890;4.724;2024-01-06T02:43:01;6.60;99.90
30628;DHT22;17394;50.890;4.724;2024-01-06T02:45:27;6.60;99.90
30628;DHT22;17394;50.890;4.724;2024-01-06T02:47:53;6.60;99.90
30628;DHT22;17394;50.890;4.724;2024-01-06T02:50:19;6.60;99.90
30628;DHT22;17394;50.890;4.724;2024-01-06T02:52:45;6.60;99.90
30628;DHT22;17394;50.890;4.724;2024-01-06T02:55:11;6.60;99.90
30628;DHT22;17394;50.890;4.724;2024-01-06T02:57:38;6.60;99.90
30628;DHT22;17394;50.890;4.724;2024-01-06T03:00:04;6.60;99.90
30628;DHT22;17394;50.890;4.724;2024-01-06T03:02:30;6.60;99.90
30628;DHT22;17394;50.890;4.724;2024-01-06T03:04:56;6.60;99.90
30628;DHT22;17394;50.890;4.724;2024-01-06T03:07:22;6.60;99.90
30628;DHT22;17394;50.890;4.724;2024-01-06T03:09:48;6.60;99.90
30628;DHT22;17394;50.890;4.724;2024-01-06T03:12:14;6.60;99.90
30628;DHT22;17394;50.890;4.724;2024-01-06T03:14:40;6.60;99.90
30628;DHT22;17394;50.890;4.724;2024-01-06T03:17:06;6.60;99.90
30628;DHT22;17394;50.890;4.724;2024-01-06T03:19:32;6.60;99.90
30628;DHT22;17394;50.890;4.724;2024-01-06T03:21:58;6.60;99.90
30628;DHT22;17394;50.890;4.724;2024-01-06T03:24:25;6.60;99.90
30628;DHT22;17394;50.890;4.724;2024-01-06T03:26:51;6.60;99.90
30628;DHT22;17394;50.890;4.724;2024-01-06T03:29:17;6.60;99.90
30628;DHT22;17394;50.890;4.724;2024-01-06T03:31:44;6.60;99.90
30628;DHT22;17394;50.890;4.724;2024-01-06T03:34:10;6.60;99.90
30628;DHT22;17394;50.890;4.724;2024-01-06T03:36:39;6.60;99.90
30628;DHT22;17394;50.890;4.724;2024-01-06T03:39:06;6.60;99.90
30628;DHT22;17394;50.890;4.724;2024-01-06T03:41:32;6.60;99.90
30628;DHT22;17394;50.890;4.724;2024-01-06T03:43:58;6.60;99.90
30628;DHT22;17394;50.890;4.724;2024-01-06T03:46:24;6.50;99.90
30628;DHT22;17394;50.890;4.724;2024-01-06T03:48:50;6.50;99.90
30628;DHT22;17394;50.890;4.724;2024-01-06T03:51:16;6.50;99.90
30628;DHT22;17394;50.890;4.724;2024-01-06T03:53:42;6.50;99.90
30628;DHT22;17394;50.890;4.724;2024-01-06T03:56:08;6.60;99.90
30628;DHT22;17394;50.890;4.724;2024-01-06T03:58:34;6.50;99.90
30628;DHT22;17394;50.890;4.724;2024-01-06T04:01:00;6.60;99.90
30628;DHT22;17394;50.890;4.724;2024-01-06T04:03:26;6.60;99.90
30628;DHT22;17394;50.890;4.724;2024-01-06T04:05:52;6.60;99.90
30628;DHT22;17394;50.890;4.724;2024-01-06T04:08:18;6.60;99.90
30628;DHT22;17394;50.890;4.724;2024-01-06T04:10:45;6.50;99.90
30628;DHT22;17394;50.890;4.724;2024-01-06T04:13:11;6.50;99.90
30628;DHT22;17394;50.890;4.724;2024-01-06T04:15:37;6.50;99.90
30628;DHT22;17394;50.890;4.724;2024-01-06T04:18:04;6.40;99.90
30628;DHT22;17394;50.890;4.724;2024-01-06T04:20:30;6.40;99.90
30628;DHT22;17394;50.890;4.724;2024-01-06T04:22:56;6.30;99.90
30628;DHT22;17394;50.890;4.724;2024-01-06T04:25:22;6.30;99.90
30628;DHT22;17394;50.890;4.724;2024-01-06T04:27:48;6.30;99.90
30628;DHT22;17394;50.890;4.724;2024-01-06T04:30:16;6.20;99.90
30628;DHT22;17394;50.890;4.724;2024-01-06T04:32:42;6.20;99.90
30628;DHT22;17394;50.890;4.724;2024-01-06T04:35:09;6.10;99.90
30628;DHT22;17394;50.890;4.724;2024-01-06T04:37:35;6.10;99.90
30628;DHT22;17394;50.890;4.724;2024-01-06T04:40:01;6.00;99.90
30628;DHT22;17394;50.890;4.724;2024-01-06T04:42:27;6.00;99.90
30628;DHT22;17394;50.890;4.724;2024-01-06T04:44:52;5.90;99.90
30628;DHT22;17394;50.890;4.724;2024-01-06T04:47:18;5.90;99.90
30628;DHT22;17394;50.890;4.724;2024-01-06T04:49:45;5.90;99.90
30628;DHT22;17394;50.890;4.724;2024-01-06T04:52:11;5.90;99.90
30628;DHT22;17394;50.890;4.724;2024-01-06T04:54:37;5.90;99.90
30628;DHT22;17394;50.890;4.724;2024-01-06T04:57:03;5.90;99.90
30628;DHT22;17394;50.890;4.724;2024-01-06T04:59:30;5.90;99.90
30628;DHT22;17394;50.890;4.724;2024-01-06T05:01:57;5.80;99.90
30628;DHT22;17394;50.890;4.724;2024-01-06T05:04:24;5.80;99.90
30628;DHT22;17394;50.890;4.724;2024-01-06T05:06:51;5.80;99.90
30628;DHT22;17394;50.890;4.724;2024-01-06T05:09:17;5.80;99.90
30628;DHT22;17394;50.890;4.724;2024-01-06T05:11:44;5.80;99.90
30628;DHT22;17394;50.890;4.724;2024-01-06T05:14:10;5.80;99.90
30628;DHT22;17394;50.890;4.724;2024-01-06T05:16:36;5.80;99.90
30628;DHT22;17394;50.890;4.724;2024-01-06T05:19:02;5.70;99.90
30628;DHT22;17394;50.890;4.724;2024-01-06T05:21:29;5.80;99.90
30628;DHT22;17394;50.890;4.724;2024-01-06T05:23:55;5.70;99.90
30628;DHT22;17394;50.890;4.724;2024-01-06T05:26:20;5.70;99.90
30628;DHT22;17394;50.890;4.724;2024-01-06T05:28:46;5.70;99.90
30628;DHT22;17394;50.890;4.724;2024-01-06T05:31:12;5.70;99.90
30628;DHT22;17394;50.890;4.724;2024-01-06T05:33:38;5.70;99.90
30628;DHT22;17394;50.890;4.724;2024-01-06T05:36:04;5.70;99.90
30628;DHT22;17394;50.890;4.724;2024-01-06T05:38:30;5.70;99.90
30628;DHT22;17394;50.890;4.724;2024-01-06T05:40:56;5.70;99.90
30628;DHT22;17394;50.890;4.724;2024-01-06T05:43:22;5.70;99.90
30628;DHT22;17394;50.890;4.724;2024-01-06T05:45:47;5.70;99.90
30628;DHT22;17394;50.890;4.724;2024-01-06T05:48:13;5.70;99.90
30628;DHT22;17394;50.890;4.724;2024-01-06T05:50:39;5.70;99.90
30628;DHT22;17394;50.890;4.724;2024-01-06T05:53:05;5.60;99.90
30628;DHT22;17394;50.890;4.724;2024-01-06T05:55:31;5.60;99.90
30628;DHT22;17394;50.890;4.724;2024-01-06T05:57:57;5.60;99.90
30628;DHT22;17394;50.890;4.724;2024-01-06T06:00:23;5.60;99.90
30628;DHT22;17394;50.890;4.724;2024-01-06T06:02:49;5.60;99.90
30628;DHT22;17394;50.890;4.724;2024-01-06T06:05:15;5.60;99.90
30628;DHT22;17394;50.890;4.724;2024-01-06T06:07:41;5.60;99.90
30628;DHT22;17394;50.890;4.724;2024-01-06T06:10:09;5.60;99.90
30628;DHT22;17394;50.890;4.724;2024-01-06T06:12:35;5.50;99.90
30628;DHT22;17394;50.890;4.724;2024-01-06T06:15:02;5.50;99.90
30628;DHT22;17394;50.890;4.724;2024-01-06T06:17:33;5.50;99.90
30628;DHT22;17394;50.890;4.724;2024-01-06T06:19:59;5.40;99.90
30628;DHT22;17394;50.890;4.724;2024-01-06T06:22:25;5.40;99.90
30628;DHT22;17394;50.890;4.724;2024-01-06T06:24:58;5.40;99.90
30628;DHT22;17394;50.890;4.724;2024-01-06T06:27:24;5.40;99.90
30628;DHT22;17394;50.890;4.724;2024-01-06T06:29:50;5.40;99.90
30628;DHT22;17394;50.890;4.724;2024-01-06T06:32:16;5.40;99.90
30628;DHT22;17394;50.890;4.724;2024-01-06T06:34:42;5.30;99.90
30628;DHT22;17394;50.890;4.724;2024-01-06T06:37:08;5.30;99.90
30628;DHT22;17394;50.890;4.724;2024-01-06T06:39:34;5.20;99.90
30628;DHT22;17394;50.890;4.724;2024-01-06T06:42:01;5.20;99.90
30628;DHT22;17394;50.890;4.724;2024-01-06T06:44:27;5.10;99.90
30628;DHT22;17394;50.890;4.724;2024-01-06T06:46:53;5.00;99.90
30628;DHT22;17394;50.890;4.724;2024-01-06T06:49:19;5.00;99.90
30628;DHT22;17394;50.890;4.724;2024-01-06T06:51:45;5.00;99.90
30628;DHT22;17394;50.890;4.724;2024-01-06T06:54:15;5.00;99.90
30628;DHT22;17394;50.890;4.724;2024-01-06T06:56:43;4.90;99.90
30628;DHT22;17394;50.890;4.724;2024-01-06T06:59:09;4.90;99.90
30628;DHT22;17394;50.890;4.724;2024-01-06T07:01:35;4.80;99.90
30628;DHT22;17394;50.890;4.724;2024-01-06T07:04:01;4.80;99.90
30628;DHT22;17394;50.890;4.724;2024-01-06T07:06:28;4.80;99.90
30628;DHT22;17394;50.890;4.724;2024-01-06T07:08:54;4.70;99.90
30628;DHT22;17394;50.890;4.724;2024-01-06T07:11:20;4.70;99.90
30628;DHT22;17394;50.890;4.724;2024-01-06T07:13:47;4.70;99.90
30628;DHT22;17394;50.890;4.724;2024-01-06T07:16:13;4.70;99.90
30628;DHT22;17394;50.890;4.724;2024-01-06T07:18:39;4.70;99.90
30628;DHT22;17394;50.890;4.724;2024-01-06T07:21:05;4.70;99.90
30628;DHT22;17394;50.890;4.724;2024-01-06T07:23:34;4.70;99.90
30628;DHT22;17394;50.890;4.724;2024-01-06T07:26:00;4.70;99.90
30628;DHT22;17394;50.890;4.724;2024-01-06T07:28:26;4.70;99.90
30628;DHT22;17394;50.890;4.724;2024-01-06T07:30:52;4.70;99.90
30628;DHT22;17394;50.890;4.724;2024-01-06T07:33:18;4.70;99.90
30628;DHT22;17394;50.890;4.724;2024-01-06T07:35:47;4.70;99.90
30628;DHT22;17394;50.890;4.724;2024-01-06T07:38:13;4.70;99.90
30628;DHT22;17394;50.890;4.724;2024-01-06T07:40:39;4.60;99.90
30628;DHT22;17394;50.890;4.724;2024-01-06T07:43:05;4.70;99.90
30628;DHT22;17394;50.890;4.724;2024-01-06T07:45:32;4.70;99.90
30628;DHT22;17394;50.890;4.724;2024-01-06T07:47:58;4.70;99.90
30628;DHT22;17394;50.890;4.724;2024-01-06T07:50:24;4.70;99.90
30628;DHT22;17394;50.890;4.724;2024-01-06T07:52:50;4.80;99.90
30628;DHT22;17394;50.890;4.724;2024-01-06T07:55:16;4.80;99.90
30628;DHT22;17394;50.890;4.724;2024-01-06T07:57:42;4.80;99.90
30628;DHT22;17394;50.890;4.724;2024-01-06T08:00:10;4.80;99.90
30628;DHT22;17394;50.890;4.724;2024-01-06T08:02:35;4.80;99.90
30628;DHT22;17394;50.890;4.724;2024-01-06T08:05:01;4.80;99.90
30628;DHT22;17394;50.890;4.724;2024-01-06T08:07:28;4.70;99.90
30628;DHT22;17394;50.890;4.724;2024-01-06T08:09:53;4.70;99.90
30628;DHT22;17394;50.890;4.724;2024-01-06T08:12:19;4.70;99.90
30628;DHT22;17394;50.890;4.724;2024-01-06T08:14:45;4.70;99.90
30628;DHT22;17394;50.890;4.724;2024-01-06T08:17:11;4.80;99.90
30628;DHT22;17394;50.890;4.724;2024-01-06T08:19:36;4.80;99.90
30628;DHT22;17394;50.890;4.724;2024-01-06T08:22:02;4.80;99.90
30628;DHT22;17394;50.890;4.724;2024-01-06T08:24:28;4.80;99.90
30628;DHT22;17394;50.890;4.724;2024-01-06T08:26:54;4.80;99.90
30628;DHT22;17394;50.890;4.724;2024-01-06T08:29:19;4.80;99.90
30628;DHT22;17394;50.890;4.724;2024-01-06T08:31:45;4.90;99.90
30628;DHT22;17394;50.890;4.724;2024-01-06T08:34:11;4.90;99.90
30628;DHT22;17394;50.890;4.724;2024-01-06T08:36:37;4.90;99.90
30628;DHT22;17394;50.890;4.724;2024-01-06T08:39:03;5.00;99.90
30628;DHT22;17394;50.890;4.724;2024-01-06T08:41:29;5.00;99.90
30628;DHT22;17394;50.890;4.724;2024-01-06T08:43:55;4.90;99.90
30628;DHT22;17394;50.890;4.724;2024-01-06T08:46:20;5.00;99.90
30628;DHT22;17394;50.890;4.724;2024-01-06T08:48:46;5.00;99.90
30628;DHT22;17394;50.890;4.724;2024-01-06T08:51:12;5.00;99.90
30628;DHT22;17394;50.890;4.724;2024-01-06T08:53:37;5.00;99.90
30628;DHT22;17394;50.890;4.724;2024-01-06T08:56:03;5.00;99.90
30628;DHT22;17394;50.890;4.724;2024-01-06T08:58:29;4.80;99.90
30628;DHT22;17394;50.890;4.724;2024-01-06T09:00:55;5.00;99.90
30628;DHT22;17394;50.890;4.724;2024-01-06T09:03:20;5.00;99.90
30628;DHT22;17394;50.890;4.724;2024-01-06T09:05:56;4.90;99.90
30628;DHT22;17394;50.890;4.724;2024-01-06T09:08:23;5.00;99.90
30628;DHT22;17394;50.890;4.724;2024-01-06T09:10:50;5.00;99.90
30628;DHT22;17394;50.890;4.724;2024-01-06T09:13:20;5.00;99.90
30628;DHT22;17394;50.890;4.724;2024-01-06T09:15:47;5.00;99.90
30628;DHT22;17394;50.890;4.724;2024-01-06T09:18:13;4.90;99.90
30628;DHT22;17394;50.890;4.724;2024-01-06T09:20:39;4.90;99.90
30628;DHT22;17394;50.890;4.724;2024-01-06T09:23:04;4.90;99.90
30628;DHT22;17394;50.890;4.724;2024-01-06T09:25:30;4.90;99.90
30628;DHT22;17394;50.890;4.724;2024-01-06T09:27:56;4.90;99.90
30628;DHT22;17394;50.890;4.724;2024-01-06T09:30:22;5.00;99.90
30628;DHT22;17394;50.890;4.724;2024-01-06T09:32:47;5.00;99.90
30628;DHT22;17394;50.890;4.724;2024-01-06T09:35:13;5.00;99.90
30628;DHT22;17394;50.890;4.724;2024-01-06T09:37:40;5.00;99.90
30628;DHT22;17394;50.890;4.724;2024-01-06T09:40:08;5.00;99.90
30628;DHT22;17394;50.890;4.724;2024-01-06T09:42:36;5.00;99.90
30628;DHT22;17394;50.890;4.724;2024-01-06T09:45:03;5.10;99.90
30628;DHT22;17394;50.890;4.724;2024-01-06T09:47:31;5.20;99.90
30628;DHT22;17394;50.890;4.724;2024-01-06T09:50:01;5.20;99.90
30628;DHT22;17394;50.890;4.724;2024-01-06T09:52:28;5.10;99.90
30628;DHT22;17394;50.890;4.724;2024-01-06T09:54:56;5.00;99.90
30628;DHT22;17394;50.890;4.724;2024-01-06T09:57:23;5.10;99.90
30628;DHT22;17394;50.890;4.724;2024-01-06T09:59:48;5.00;99.90
30628;DHT22;17394;50.890;4.724;2024-01-06T10:02:15;5.00;99.90
30628;DHT22;17394;50.890;4.724;2024-01-06T10:04:43;4.90;99.90
30628;DHT22;17394;50.890;4.724;2024-01-06T10:07:10;4.90;99.90
30628;DHT22;17394;50.890;4.724;2024-01-06T10:09:38;4.80;99.90
30628;DHT22;17394;50.890;4.724;2024-01-06T10:12:04;4.80;99.90
30628;DHT22;17394;50.890;4.724;2024-01-06T10:14:30;4.70;99.90
30628;DHT22;17394;50.890;4.724;2024-01-06T10:16:56;4.70;99.90
30628;DHT22;17394;50.890;4.724;2024-01-06T10:19:23;4.70;99.90
30628;DHT22;17394;50.890;4.724;2024-01-06T10:21:49;4.70;99.90
30628;DHT22;17394;50.890;4.724;2024-01-06T10:24:17;4.60;99.90
30628;DHT22;17394;50.890;4.724;2024-01-06T10:26:46;4.60;99.90
30628;DHT22;17394;50.890;4.724;2024-01-06T10:29:15;4.60;99.90
30628;DHT22;17394;50.890;4.724;2024-01-06T10:31:41;4.60;99.90
30628;DHT22;17394;50.890;4.724;2024-01-06T10:34:07;4.60;99.90
30628;DHT22;17394;50.890;4.724;2024-01-06T10:36:33;4.60;99.90
30628;DHT22;17394;50.890;4.724;2024-01-06T10:39:00;4.60;99.90
30628;DHT22;17394;50.890;4.724;2024-01-06T10:41:29;4.60;99.90
30628;DHT22;17394;50.890;4.724;2024-01-06T10:43:58;4.60;99.90
30628;DHT22;17394;50.890;4.724;2024-01-06T10:46:29;4.60;99.90
30628;DHT22;17394;50.890;4.724;2024-01-06T10:48:57;4.60;99.90
30628;DHT22;17394;50.890;4.724;2024-01-06T10:51:25;4.60;99.90
30628;DHT22;17394;50.890;4.724;2024-01-06T10:53:53;4.60;99.90
30628;DHT22;17394;50.890;4.724;2024-01-06T10:56:19;4.60;99.90
30628;DHT22;17394;50.890;4.724;2024-01-06T10:58:47;4.70;99.90
30628;DHT22;17394;50.890;4.724;2024-01-06T11:01:15;4.60;99.90
30628;DHT22;17394;50.890;4.724;2024-01-06T11:03:45;4.60;99.90
30628;DHT22;17394;50.890;4.724;2024-01-06T11:06:12;4.60;99.90
30628;DHT22;17394;50.890;4.724;2024-01-06T11:11:18;4.50;99.90
30628;DHT22;17394;50.890;4.724;2024-01-06T11:13:44;4.50;99.90
30628;DHT22;17394;50.890;4.724;2024-01-06T11:16:11;4.50;99.90
30628;DHT22;17394;50.890;4.724;2024-01-06T11:18:39;4.50;99.90
30628;DHT22;17394;50.890;4.724;2024-01-06T11:21:21;4.50;99.90
30628;DHT22;17394;50.890;4.724;2024-01-06T11:26:32;4.50;99.90
30628;DHT22;17394;50.890;4.724;2024-01-06T11:28:57;4.50;99.90
30628;DHT22;17394;50.890;4.724;2024-01-06T11:31:32;4.60;99.90
30628;DHT22;17394;50.890;4.724;2024-01-06T11:34:21;4.60;99.90
30628;DHT22;17394;50.890;4.724;2024-01-06T11:36:50;4.60;99.90
30628;DHT22;17394;50.890;4.724;2024-01-06T11:42:02;4.60;99.90
30628;DHT22;17394;50.890;4.724;2024-01-06T11:44:28;4.60;99.90
30628;DHT22;17394;50.890;4.724;2024-01-06T11:46:58;4.60;99.90
30628;DHT22;17394;50.890;4.724;2024-01-06T11:49:27;4.60;99.90
30628;DHT22;17394;50.890;4.724;2024-01-06T11:51:57;4.50;99.90
30628;DHT22;17394;50.890;4.724;2024-01-06T11:54:23;4.60;99.90
30628;DHT22;17394;50.890;4.724;2024-01-06T11:56:49;4.60;99.90
30628;DHT22;17394;50.890;4.724;2024-01-06T11:59:14;4.50;99.90
30628;DHT22;17394;50.890;4.724;2024-01-06T12:01:41;4.50;99.90
30628;DHT22;17394;50.890;4.724;2024-01-06T12:04:07;4.50;99.90
30628;DHT22;17394;50.890;4.724;2024-01-06T12:06:33;4.50;99.90
30628;DHT22;17394;50.890;4.724;2024-01-06T12:09:10;4.50;99.90
30628;DHT22;17394;50.890;4.724;2024-01-06T12:11:40;4.50;99.90
30628;DHT22;17394;50.890;4.724;2024-01-06T12:14:05;4.50;99.90
30628;DHT22;17394;50.890;4.724;2024-01-06T12:16:34;4.50;99.90
30628;DHT22;17394;50.890;4.724;2024-01-06T12:19:02;4.60;99.90
30628;DHT22;17394;50.890;4.724;2024-01-06T12:21:29;4.60;99.90
30628;DHT22;17394;50.890;4.724;2024-01-06T12:24:16;4.70;99.90
30628;DHT22;17394;50.890;4.724;2024-01-06T12:26:44;4.60;99.90
30628;DHT22;17394;50.890;4.724;2024-01-06T12:29:10;4.60;99.90
30628;DHT22;17394;50.890;4.724;2024-01-06T12:31:38;4.60;99.90
30628;DHT22;17394;50.890;4.724;2024-01-06T12:34:04;4.60;99.90
30628;DHT22;17394;50.890;4.724;2024-01-06T12:36:30;4.60;99.90
30628;DHT22;17394;50.890;4.724;2024-01-06T12:38:58;4.50;99.90
30628;DHT22;17394;50.890;4.724;2024-01-06T12:41:24;4.50;99.90
30628;DHT22;17394;50.890;4.724;2024-01-06T12:43:50;4.50;99.90
30628;DHT22;17394;50.890;4.724;2024-01-06T12:46:15;4.50;99.90
30628;DHT22;17394;50.890;4.724;2024-01-06T12:48:42;4.40;99.90
30628;DHT22;17394;50.890;4.724;2024-01-06T12:51:07;4.40;99.90
30628;DHT22;17394;50.890;4.724;2024-01-06T12:53:33;4.40;99.90
30628;DHT22;17394;50.890;4.724;2024-01-06T12:55:59;4.40;99.90
30628;DHT22;17394;50.890;4.724;2024-01-06T12:58:24;4.40;99.90
30628;DHT22;17394;50.890;4.724;2024-01-06T13:00:50;4.30;99.90
30628;DHT22;17394;50.890;4.724;2024-01-06T13:03:16;4.30;99.90
30628;DHT22;17394;50.890;4.724;2024-01-06T13:05:42;4.30;99.90
30628;DHT22;17394;50.890;4.724;2024-01-06T13:08:08;4.30;99.90
30628;DHT22;17394;50.890;4.724;2024-01-06T13:10:33;4.30;99.90
30628;DHT22;17394;50.890;4.724;2024-01-06T13:13:01;4.30;99.90
30628;DHT22;17394;50.890;4.724;2024-01-06T13:15:27;4.30;99.90
30628;DHT22;17394;50.890;4.724;2024-01-06T13:17:53;4.30;99.90
30628;DHT22;17394;50.890;4.724;2024-01-06T13:20:19;4.30;99.90
30628;DHT22;17394;50.890;4.724;2024-01-06T13:22:45;4.30;99.90
30628;DHT22;17394;50.890;4.724;2024-01-06T13:25:10;4.30;99.90
30628;DHT22;17394;50.890;4.724;2024-01-06T13:27:37;4.30;99.90
30628;DHT22;17394;50.890;4.724;2024-01-06T13:30:04;4.30;99.90
30628;DHT22;17394;50.890;4.724;2024-01-06T13:32:30;4.30;99.90
30628;DHT22;17394;50.890;4.724;2024-01-06T13:34:56;4.30;99.90
30628;DHT22;17394;50.890;4.724;2024-01-06T13:37:27;4.30;99.90
30628;DHT22;17394;50.890;4.724;2024-01-06T13:39:53;4.30;99.90
30628;DHT22;17394;50.890;4.724;2024-01-06T13:42:19;4.30;99.90
30628;DHT22;17394;50.890;4.724;2024-01-06T13:44:47;4.30;99.90
30628;DHT22;17394;50.890;4.724;2024-01-06T13:47:14;4.30;99.90
30628;DHT22;17394;50.890;4.724;2024-01-06T13:49:40;4.30;99.90
30628;DHT22;17394;50.890;4.724;2024-01-06T13:52:06;4.30;99.90
30628;DHT22;17394;50.890;4.724;2024-01-06T13:54:35;4.30;99.90
30628;DHT22;17394;50.890;4.724;2024-01-06T13:57:01;4.30;99.90
30628;DHT22;17394;50.890;4.724;2024-01-06T13:59:27;4.30;99.90
30628;DHT22;17394;50.890;4.724;2024-01-06T14:01:53;4.30;99.90
30628;DHT22;17394;50.890;4.724;2024-01-06T14:04:19;4.30;99.90
30628;DHT22;17394;50.890;4.724;2024-01-06T14:06:45;4.30;99.90
30628;DHT22;17394;50.890;4.724;2024-01-06T14:09:13;4.30;99.90
30628;DHT22;17394;50.890;4.724;2024-01-06T14:11:39;4.30;99.90
30628;DHT22;17394;50.890;4.724;2024-01-06T14:14:05;4.30;99.90
30628;DHT22;17394;50.890;4.724;2024-01-06T14:16:30;4.20;99.90
30628;DHT22;17394;50.890;4.724;2024-01-06T14:18:56;4.20;99.90
30628;DHT22;17394;50.890;4.724;2024-01-06T14:21:23;4.20;99.90
30628;DHT22;17394;50.890;4.724;2024-01-06T14:23:49;4.20;99.90
30628;DHT22;17394;50.890;4.724;2024-01-06T14:26:18;4.20;99.90
30628;DHT22;17394;50.890;4.724;2024-01-06T14:28:46;4.20;99.90
30628;DHT22;17394;50.890;4.724;2024-01-06T14:31:12;4.20;99.90
30628;DHT22;17394;50.890;4.724;2024-01-06T14:33:38;4.20;99.90
30628;DHT22;17394;50.890;4.724;2024-01-06T14:36:04;4.20;99.90
30628;DHT22;17394;50.890;4.724;2024-01-06T14:38:30;4.20;99.90
30628;DHT22;17394;50.890;4.724;2024-01-06T14:40:55;4.20;99.90
30628;DHT22;17394;50.890;4.724;2024-01-06T14:43:21;4.20;99.90
30628;DHT22;17394;50.890;4.724;2024-01-06T14:45:47;4.20;99.90
30628;DHT22;17394;50.890;4.724;2024-01-06T14:48:13;4.10;99.90
30628;DHT22;17394;50.890;4.724;2024-01-06T14:50:39;4.20;99.90
30628;DHT22;17394;50.890;4.724;2024-01-06T14:53:05;4.10;99.90
30628;DHT22;17394;50.890;4.724;2024-01-06T14:55:32;4.10;99.90
30628;DHT22;17394;50.890;4.724;2024-01-06T14:57:57;4.10;99.90
30628;DHT22;17394;50.890;4.724;2024-01-06T15:00:23;4.10;99.90
30628;DHT22;17394;50.890;4.724;2024-01-06T15:02:49;4.10;99.90
30628;DHT22;17394;50.890;4.724;2024-01-06T15:05:15;4.10;99.90
30628;DHT22;17394;50.890;4.724;2024-01-06T15:07:41;4.10;99.90
30628;DHT22;17394;50.890;4.724;2024-01-06T15:10:07;4.10;99.90
30628;DHT22;17394;50.890;4.724;2024-01-06T15:12:35;4.10;99.90
30628;DHT22;17394;50.890;4.724;2024-01-06T15:15:01;4.10;99.90
30628;DHT22;17394;50.890;4.724;2024-01-06T15:17:36;4.10;99.90
30628;DHT22;17394;50.890;4.724;2024-01-06T15:20:03;4.10;99.90
30628;DHT22;17394;50.890;4.724;2024-01-06T15:22:29;4.10;99.90
30628;DHT22;17394;50.890;4.724;2024-01-06T15:24:55;4.10;99.90
30628;DHT22;17394;50.890;4.724;2024-01-06T15:27:21;4.10;99.90
30628;DHT22;17394;50.890;4.724;2024-01-06T15:29:47;4.10;99.90
30628;DHT22;17394;50.890;4.724;2024-01-06T15:32:12;4.10;99.90
30628;DHT22;17394;50.890;4.724;2024-01-06T15:34:38;4.10;99.90
30628;DHT22;17394;50.890;4.724;2024-01-06T15:37:04;4.00;99.90
30628;DHT22;17394;50.890;4.724;2024-01-06T15:39:30;4.00;99.90
30628;DHT22;17394;50.890;4.724;2024-01-06T15:41:55;3.70;99.90
30628;DHT22;17394;50.890;4.724;2024-01-06T15:44:21;4.00;99.90
30628;DHT22;17394;50.890;4.724;2024-01-06T15:46:47;4.00;99.90
30628;DHT22;17394;50.890;4.724;2024-01-06T15:49:13;4.00;99.90